Time;durP1;ratioP1;P1;durP2;ratioP2;P2;SDS_P1;SDS_P2;PMS_P1;PMS_P2;Temp;Humidity;BMP_temperature;BMP_pressure;BME280_temperature;BME280_humidity;BME280_pressure;Samples;Min_cycle;Max_cycle;Signal;HPM_P1;HPM_P2
2021/12/23 00:00:12;;;;;;;35.00;19.85;;;;;;;-2.48;99.64;101389.22;5029491;28;20510;-58
2021/12/23 00:02:40;;;;;;;37.80;19.95;;;;;;;-2.48;99.77;101384.91;5028917;28;20380;-59
2021/12/23 00:05:09;;;;;;;35.97;20.58;;;;;;;-2.50;99.87;101372.88;5028711;28;20054;-58
2021/12/23 00:07:36;;;;;;;33.97;20.55;;;;;;;-2.54;100.00;101366.84;5023838;28;20117;-58
2021/12/23 00:10:06;;;;;;;36.47;21.80;;;;;;;-2.48;99.82;101358.28;5032257;28;20096;-60
2021/12/23 00:12:35;;;;;;;35.55;21.20;;;;;;;-2.60;99.99;101364.22;5029882;28;20051;-58
2021/12/23 00:15:04;;;;;;;35.65;20.63;;;;;;;-2.63;100.00;101359.03;5024363;28;20077;-55
2021/12/23 00:25:21;;;;;;;38.40;23.15;;;;;;;-2.71;100.00;101346.09;5024323;28;20140;-61
2021/12/23 00:27:48;;;;;;;34.55;21.05;;;;;;;-2.80;100.00;101346.88;5029187;28;20097;-59
2021/12/23 00:30:15;;;;;;;36.30;21.13;;;;;;;-2.80;100.00;101341.75;5022039;28;20065;-60
2021/12/23 00:32:43;;;;;;;37.40;20.98;;;;;;;-2.80;100.00;101338.31;5029055;28;20132;-58
2021/12/23 00:35:10;;;;;;;33.35;20.85;;;;;;;-2.82;100.00;101338.31;5025853;28;20053;-59
2021/12/23 00:37:44;;;;;;;36.78;21.15;;;;;;;-2.84;100.00;101337.44;5025053;28;20059;-62
2021/12/23 00:40:12;;;;;;;38.58;21.45;;;;;;;-2.80;100.00;101330.56;5028865;28;20069;-60
2021/12/23 00:42:40;;;;;;;39.53;21.65;;;;;;;-2.88;100.00;101332.22;5032415;28;20079;-60
2021/12/23 00:45:08;;;;;;;38.65;20.77;;;;;;;-2.90;100.00;101332.22;5026224;28;20081;-58
2021/12/23 00:47:35;;;;;;;34.42;20.65;;;;;;;-2.93;100.00;101329.63;5051557;28;20037;-57
2021/12/23 00:50:03;;;;;;;33.75;20.23;;;;;;;-2.90;100.00;101333.94;5033335;28;20418;-60
2021/12/23 00:52:36;;;;;;;33.88;20.77;;;;;;;-2.93;100.00;101323.59;5029153;28;20060;-61
2021/12/23 00:55:05;;;;;;;38.33;23.20;;;;;;;-2.92;100.00;101323.63;5033017;28;20053;-59
2021/12/23 00:57:37;;;;;;;34.88;20.85;;;;;;;-2.90;100.00;101326.22;5029548;28;20045;-60
2021/12/23 01:00:07;;;;;;;35.88;21.10;;;;;;;-2.82;100.00;101330.56;5031751;28;20049;-60
2021/12/23 01:02:34;;;;;;;39.70;22.13;;;;;;;-2.88;100.00;101321.91;5031133;28;20395;-58
2021/12/23 01:05:02;;;;;;;33.30;20.65;;;;;;;-3.00;100.00;101317.56;5024304;28;20053;-59
2021/12/23 01:07:29;;;;;;;35.88;21.83;;;;;;;-3.03;100.00;101317.53;5031021;28;20124;-62
2021/12/23 01:09:57;;;;;;;33.25;19.50;;;;;;;-3.04;100.00;101305.50;5033517;28;20113;-61
2021/12/23 01:12:29;;;;;;;35.55;20.92;;;;;;;-3.00;100.00;101296.09;5030135;28;20211;-58
2021/12/23 01:15:09;;;;;;;39.53;22.38;;;;;;;-2.99;100.00;101298.66;5029847;28;20492;-61
2021/12/23 01:17:53;;;;;;;38.63;21.85;;;;;;;-2.95;100.00;101303.00;5031142;28;20056;-60
2021/12/23 01:20:28;;;;;;;39.92;22.55;;;;;;;-2.89;100.00;101300.44;5027727;28;20119;-60
2021/12/23 01:22:58;;;;;;;28.88;18.88;;;;;;;-2.95;100.00;101302.13;5032189;28;20136;-62
2021/12/23 01:25:25;;;;;;;37.83;21.67;;;;;;;-2.96;100.00;101303.00;5028746;28;20537;-59
2021/12/23 01:27:53;;;;;;;34.20;21.02;;;;;;;-2.97;100.00;101293.50;5031383;28;20564;-59
2021/12/23 01:30:21;;;;;;;31.70;19.88;;;;;;;-3.05;100.00;101301.22;5024427;28;20057;-60
2021/12/23 01:32:50;;;;;;;34.45;21.42;;;;;;;-3.09;100.00;101292.59;5032235;28;20053;-60
2021/12/23 01:35:17;;;;;;;33.88;21.23;;;;;;;-3.11;100.00;101296.88;5033396;28;20181;-60
2021/12/23 01:37:45;;;;;;;38.15;21.63;;;;;;;-3.16;100.00;101301.09;5035815;28;20053;-58
2021/12/23 01:40:13;;;;;;;39.38;21.75;;;;;;;-3.14;100.00;101288.25;5040501;28;20083;-61
2021/12/23 01:42:41;;;;;;;35.72;22.38;;;;;;;-3.09;100.00;101290.00;5031354;28;20056;-57
2021/12/23 01:45:13;;;;;;;41.05;22.70;;;;;;;-3.12;100.00;101286.53;5033256;28;20105;-59
2021/12/23 01:47:41;;;;;;;40.40;20.70;;;;;;;-3.06;100.00;101286.63;5032501;28;20064;-59
2021/12/23 01:50:10;;;;;;;34.42;20.60;;;;;;;-3.19;100.00;101280.50;5031502;28;20084;-63
2021/12/23 01:52:39;;;;;;;33.70;20.50;;;;;;;-3.19;100.00;101285.66;5031194;28;20058;-61
2021/12/23 01:55:07;;;;;;;33.53;20.90;;;;;;;-3.17;100.00;101280.50;5030093;28;20526;-60
2021/12/23 01:57:35;;;;;;;43.83;22.83;;;;;;;-3.16;100.00;101277.94;5032182;28;20137;-60
2021/12/23 02:00:08;;;;;;;39.05;21.33;;;;;;;-3.17;100.00;101268.47;5027500;28;20060;-61
2021/12/23 02:02:36;;;;;;;34.60;20.38;;;;;;;-3.22;100.00;101271.88;5030545;28;20144;-61
2021/12/23 02:05:04;;;;;;;36.28;21.10;;;;;;;-3.21;100.00;101265.88;5027463;28;20057;-60
2021/12/23 02:07:31;;;;;;;34.58;20.17;;;;;;;-3.17;100.00;101259.91;5029928;28;20073;-60
2021/12/23 02:09:58;;;;;;;35.25;20.42;;;;;;;-3.20;100.00;101259.88;5028039;28;20061;-59
2021/12/23 02:12:26;;;;;;;36.67;21.23;;;;;;;-3.19;100.00;101251.31;5030827;28;20132;-60
2021/12/23 02:14:53;;;;;;;33.80;20.17;;;;;;;-3.14;100.00;101241.91;5027347;28;20046;-59
2021/12/23 02:17:20;;;;;;;40.92;22.40;;;;;;;-3.18;100.00;101235.00;5030330;28;20350;-59
2021/12/23 02:19:51;;;;;;;39.05;21.67;;;;;;;-3.20;100.00;101232.41;5026557;28;20050;-61
2021/12/23 02:22:18;;;;;;;33.70;22.13;;;;;;;-3.22;100.00;101226.38;5029831;28;20061;-59
2021/12/23 02:24:45;;;;;;;43.72;23.52;;;;;;;-3.15;100.00;101225.59;5025336;28;20076;-61
2021/12/23 02:27:12;;;;;;;36.30;20.70;;;;;;;-3.19;100.00;101215.28;5027089;28;20103;-60
2021/12/23 02:29:40;;;;;;;35.95;21.30;;;;;;;-3.18;100.00;101215.25;5027975;28;20139;-60
2021/12/23 02:32:07;;;;;;;33.20;20.63;;;;;;;-3.16;100.00;101213.53;5030214;28;20049;-60
2021/12/23 02:34:34;;;;;;;41.40;21.48;;;;;;;-3.13;100.00;101211.00;5026479;28;20053;-61
2021/12/23 02:37:05;;;;;;;39.78;20.23;;;;;;;-3.07;100.00;101205.03;5026528;28;20053;-59
2021/12/23 02:39:41;;;;;;;39.08;23.00;;;;;;;-3.15;100.00;101198.94;5030177;28;20109;-59
2021/12/23 02:42:08;;;;;;;36.22;21.20;;;;;;;-3.17;100.00;101198.09;5026625;28;20053;-60
2021/12/23 02:44:35;;;;;;;37.67;21.98;;;;;;;-3.17;100.00;101192.94;5030528;28;20146;-59
2021/12/23 02:47:03;;;;;;;42.17;23.40;;;;;;;-3.18;100.00;101197.25;5031098;28;20045;-59
2021/12/23 02:49:30;;;;;;;38.42;21.90;;;;;;;-3.21;100.00;101189.47;5023667;28;20056;-61
2021/12/23 02:51:57;;;;;;;35.75;21.30;;;;;;;-3.06;100.00;101175.88;5029052;28;20045;-62
2021/12/23 02:54:24;;;;;;;36.55;20.80;;;;;;;-3.13;100.00;101169.78;5028946;28;20833;-59
2021/12/23 02:56:51;;;;;;;39.90;22.83;;;;;;;-3.07;100.00;101156.94;5030429;28;20057;-59
2021/12/23 02:59:18;;;;;;;36.03;21.05;;;;;;;-3.13;100.00;101156.06;5027522;28;20152;-61
2021/12/23 03:01:45;;;;;;;35.13;21.45;;;;;;;-3.12;100.00;101150.06;5021328;28;20076;-57
2021/12/23 03:04:13;;;;;;;37.03;22.23;;;;;;;-3.14;100.00;101139.75;5025200;28;20046;-62
2021/12/23 03:06:40;;;;;;;36.97;22.23;;;;;;;-3.18;100.00;101132.88;5029662;28;20060;-59
2021/12/23 03:09:07;;;;;;;41.20;22.73;;;;;;;-3.14;100.00;101126.88;5027138;28;20103;-61
2021/12/23 03:11:35;;;;;;;35.80;21.00;;;;;;;-3.09;100.00;101125.19;5028354;28;20046;-59
2021/12/23 03:14:02;;;;;;;38.40;22.98;;;;;;;-3.08;100.00;101132.06;5029447;28;20140;-61
2021/12/23 03:16:31;;;;;;;36.38;21.70;;;;;;;-3.09;100.00;101121.75;5028428;28;20049;-61
2021/12/23 03:18:59;;;;;;;37.80;22.38;;;;;;;-3.08;100.00;101116.59;5025027;28;20148;-61
2021/12/23 03:21:27;;;;;;;39.92;21.60;;;;;;;-3.00;100.00;101114.06;5028595;28;20045;-61
2021/12/23 03:23:54;;;;;;;37.90;22.15;;;;;;;-3.02;99.63;101099.44;5028101;28;20265;-59
2021/12/23 03:26:24;;;;;;;40.42;23.17;;;;;;;-3.09;99.89;101102.00;5026590;28;20056;-58
2021/12/23 03:28:51;;;;;;;38.42;22.23;;;;;;;-3.13;100.00;101091.69;5025444;28;20138;-59
2021/12/23 03:31:18;;;;;;;39.65;23.35;;;;;;;-3.22;100.00;101089.94;5029128;28;20075;-58
2021/12/23 03:33:45;;;;;;;39.33;23.17;;;;;;;-3.11;100.00;101077.09;5027723;28;20141;-60
2021/12/23 03:36:12;;;;;;;39.38;22.67;;;;;;;-3.13;100.00;101071.94;5024447;28;20061;-60
2021/12/23 03:38:39;;;;;;;38.67;21.75;;;;;;;-3.13;100.00;101076.22;5028058;28;20490;-58
2021/12/23 03:41:07;;;;;;;46.90;24.45;;;;;;;-3.13;100.00;101068.50;5032107;28;20121;-60
2021/12/23 03:43:34;;;;;;;41.00;23.35;;;;;;;-3.14;100.00;101067.66;5024939;28;20061;-58
2021/12/23 03:46:01;;;;;;;45.95;25.17;;;;;;;-3.24;100.00;101058.19;5029211;28;20049;-60
2021/12/23 03:48:28;;;;;;;45.25;24.10;;;;;;;-3.24;100.00;101054.72;5029220;28;20132;-59
2021/12/23 03:50:55;;;;;;;42.20;23.50;;;;;;;-3.24;100.00;101044.41;5029485;28;20042;-61
2021/12/23 03:53:22;;;;;;;43.95;24.70;;;;;;;-3.19;100.00;101037.59;5026187;28;20526;-60
2021/12/23 03:55:50;;;;;;;44.65;24.55;;;;;;;-3.25;100.00;101037.53;5029813;28;20141;-61
2021/12/23 03:58:17;;;;;;;44.75;25.13;;;;;;;-3.26;100.00;101030.69;5027492;28;20144;-62
2021/12/23 04:00:44;;;;;;;42.80;23.23;;;;;;;-3.28;100.00;101024.69;5029526;28;20049;-62
2021/12/23 04:03:12;;;;;;;43.03;25.83;;;;;;;-3.32;100.00;101032.38;5021984;28;20507;-62
2021/12/23 04:05:39;;;;;;;43.65;24.17;;;;;;;-3.29;100.00;101031.53;5029257;28;20506;-60
2021/12/23 04:08:07;;;;;;;39.78;23.67;;;;;;;-3.28;100.00;101030.69;5028443;28;20053;-58
2021/12/23 04:10:34;;;;;;;48.55;25.00;;;;;;;-3.25;100.00;101016.94;5028452;28;20081;-61
2021/12/23 04:13:01;;;;;;;46.00;24.73;;;;;;;-3.18;100.00;101005.84;5031376;28;20119;-63
2021/12/23 04:15:28;;;;;;;42.53;24.00;;;;;;;-3.01;100.00;100998.16;5028670;28;20510;-61
2021/12/23 04:17:55;;;;;;;43.88;24.15;;;;;;;-3.12;100.00;100988.66;5029398;28;20550;-59
2021/12/23 04:20:30;;;;;;;44.75;24.00;;;;;;;-3.09;99.39;100985.25;5027562;28;20056;-60
2021/12/23 04:22:57;;;;;;;41.50;24.60;;;;;;;-3.15;100.00;100978.38;5032599;28;20045;-59
2021/12/23 04:25:26;;;;;;;41.63;24.15;;;;;;;-3.19;100.00;100968.94;5028093;28;20057;-57
2021/12/23 04:27:57;;;;;;;44.33;25.25;;;;;;;-3.17;100.00;100972.34;5032160;28;20145;-60
2021/12/23 04:30:25;;;;;;;47.40;25.77;;;;;;;-3.12;100.00;100970.66;5028577;28;20128;-61
2021/12/23 04:32:52;;;;;;;46.08;23.20;;;;;;;-2.98;99.94;100968.09;5027199;28;20072;-59
2021/12/23 04:35:20;;;;;;;45.97;24.73;;;;;;;-2.98;99.56;100973.25;5029874;28;20061;-60
2021/12/23 04:37:47;;;;;;;55.42;26.65;;;;;;;-3.06;99.35;100980.13;5035016;28;20053;-60
2021/12/23 04:40:15;;;;;;;49.88;25.63;;;;;;;-3.08;99.75;100980.09;5029667;28;20052;-60
2021/12/23 04:42:43;;;;;;;44.63;25.42;;;;;;;-2.96;99.75;100991.31;5028566;28;20080;-58
2021/12/23 04:45:10;;;;;;;41.75;24.58;;;;;;;-2.98;99.13;100974.97;5032524;28;20058;-61
2021/12/23 04:47:38;;;;;;;41.88;24.83;;;;;;;-2.86;98.93;100965.56;5031646;28;20100;-59
2021/12/23 04:50:09;;;;;;;42.30;24.75;;;;;;;-2.95;98.64;100962.97;5020659;28;20228;-59
2021/12/23 04:52:37;;;;;;;42.10;24.33;;;;;;;-2.80;98.80;100949.22;5031518;28;20100;-59
2021/12/23 04:55:05;;;;;;;44.58;24.67;;;;;;;-2.92;98.63;100942.38;5031375;28;20107;-61
2021/12/23 04:57:32;;;;;;;44.72;25.67;;;;;;;-2.90;98.92;100939.78;5028103;28;20058;-59
2021/12/23 04:59:59;;;;;;;42.28;24.90;;;;;;;-2.92;99.17;100932.06;5029400;28;20077;-60
2021/12/23 05:02:27;;;;;;;38.40;23.83;;;;;;;-2.83;98.60;100926.06;5031379;28;20050;-59
2021/12/23 05:04:54;;;;;;;45.47;24.48;;;;;;;-2.92;98.68;100914.03;5029831;28;20064;-62
2021/12/23 05:07:21;;;;;;;42.83;24.55;;;;;;;-2.91;98.88;100918.31;5029778;28;20050;-58
2021/12/23 05:09:48;;;;;;;49.45;25.63;;;;;;;-2.87;98.82;100922.63;5029218;28;20054;-60
2021/12/23 05:12:15;;;;;;;44.63;24.73;;;;;;;-2.91;98.37;100933.78;5031191;28;20104;-57
2021/12/23 05:14:42;;;;;;;46.40;25.27;;;;;;;-2.87;98.74;100924.34;5025866;28;20555;-62
2021/12/23 05:17:09;;;;;;;47.13;26.30;;;;;;;-2.93;98.79;100912.28;5024642;28;20177;-60
2021/12/23 05:19:37;;;;;;;45.55;25.42;;;;;;;-2.94;98.90;100904.56;5027797;28;20041;-61
2021/12/23 05:22:04;;;;;;;45.55;24.27;;;;;;;-2.93;99.26;100893.41;5031180;28;20269;-60
2021/12/23 05:24:32;;;;;;;40.95;24.08;;;;;;;-2.89;99.16;100893.41;5023653;28;20084;-59
2021/12/23 05:26:59;;;;;;;41.88;24.45;;;;;;;-2.79;99.02;100889.13;5033821;28;20441;-60
2021/12/23 05:29:26;;;;;;;43.88;25.33;;;;;;;-2.77;98.61;100886.56;5027541;28;20141;-60
2021/12/23 05:31:53;;;;;;;48.50;27.88;;;;;;;-2.83;98.74;100890.84;5030581;28;20057;-59
2021/12/23 05:34:20;;;;;;;43.47;24.83;;;;;;;-2.75;99.11;100892.56;5027724;28;20140;-58
2021/12/23 05:36:47;;;;;;;49.53;26.20;;;;;;;-2.70;98.94;100891.72;5033884;28;20443;-59
2021/12/23 05:39:15;;;;;;;53.05;26.50;;;;;;;-2.70;98.75;100891.72;5028777;28;20042;-61
2021/12/23 05:41:42;;;;;;;50.67;25.83;;;;;;;-2.65;98.10;100878.81;5033725;28;20052;-61
2021/12/23 05:44:09;;;;;;;42.35;24.48;;;;;;;-2.67;98.07;100865.91;5026617;28;20140;-59
2021/12/23 05:46:37;;;;;;;44.70;25.38;;;;;;;-2.68;98.32;100871.09;5033807;28;20071;-59
2021/12/23 05:49:05;;;;;;;45.15;25.02;;;;;;;-2.68;98.36;100860.78;5024567;28;20049;-62
2021/12/23 05:51:33;;;;;;;43.33;24.98;;;;;;;-2.67;98.48;100863.34;5024283;28;20453;-60
2021/12/23 05:54:00;;;;;;;46.63;25.45;;;;;;;-2.49;97.84;100869.34;5025641;28;20050;-60
2021/12/23 05:56:31;;;;;;;47.97;25.10;;;;;;;-2.55;97.08;100865.91;5027636;28;20056;-60
2021/12/23 05:58:58;;;;;;;47.15;25.95;;;;;;;-2.64;97.38;100865.94;5029014;28;20053;-62
2021/12/23 06:01:25;;;;;;;45.42;25.00;;;;;;;-2.61;97.95;100857.34;5024368;28;20233;-59
2021/12/23 06:03:53;;;;;;;44.50;24.05;;;;;;;-2.63;98.03;100856.47;5029435;28;20135;-60
2021/12/23 06:06:20;;;;;;;43.70;23.67;;;;;;;-2.56;97.84;100853.03;5030628;28;20057;-61
2021/12/23 06:08:47;;;;;;;41.22;23.75;;;;;;;-2.52;97.47;100847.03;5029388;28;20059;-60
2021/12/23 06:11:14;;;;;;;44.72;24.88;;;;;;;-2.50;97.23;100836.69;5029968;28;20531;-60
2021/12/23 06:13:41;;;;;;;41.40;23.27;;;;;;;-2.52;97.17;100825.50;5030004;28;20061;-57
2021/12/23 06:16:09;;;;;;;45.67;25.48;;;;;;;-2.59;97.54;100825.53;5027188;28;20072;-57
2021/12/23 06:18:36;;;;;;;41.60;25.02;;;;;;;-2.50;97.18;100824.66;5030831;28;20153;-60
2021/12/23 06:21:03;;;;;;;44.22;23.38;;;;;;;-2.46;96.88;100822.94;5028072;28;20129;-59
2021/12/23 06:23:31;;;;;;;44.08;24.85;;;;;;;-2.52;96.61;100807.47;5025931;28;20071;-60
2021/12/23 06:25:58;;;;;;;40.05;24.27;;;;;;;-2.50;96.91;100805.75;5025605;28;20556;-61
2021/12/23 06:28:25;;;;;;;42.15;23.25;;;;;;;-2.43;96.44;100798.03;5028568;28;20057;-59
2021/12/23 06:30:53;;;;;;;40.10;23.88;;;;;;;-2.47;96.21;100798.88;5029567;28;20096;-60
2021/12/23 06:33:20;;;;;;;43.15;25.30;;;;;;;-2.44;96.16;100805.72;5024713;28;20338;-57
2021/12/23 06:35:50;;;;;;;42.90;23.45;;;;;;;-2.40;95.67;100800.56;5030864;28;20063;-60
2021/12/23 06:38:17;;;;;;;41.75;24.13;;;;;;;-2.42;96.22;100804.88;5028036;28;20573;-62
2021/12/23 06:40:44;;;;;;;41.60;22.42;;;;;;;-2.44;95.85;100803.16;5029294;28;20598;-61
2021/12/23 06:43:11;;;;;;;42.85;24.88;;;;;;;-2.49;96.12;100799.75;5026582;28;20441;-62
2021/12/23 06:45:39;;;;;;;44.67;24.60;;;;;;;-2.47;96.17;100801.47;5031323;28;20050;-59
2021/12/23 06:48:06;;;;;;;40.53;23.98;;;;;;;-2.47;96.16;100798.88;5029861;28;20164;-61
2021/12/23 06:50:33;;;;;;;44.38;23.15;;;;;;;-2.45;95.98;100793.72;5024973;28;20391;-60
2021/12/23 06:53:00;;;;;;;46.03;23.85;;;;;;;-2.45;95.74;100791.13;5025216;28;20211;-62
2021/12/23 06:55:28;;;;;;;43.75;24.77;;;;;;;-2.39;96.14;100798.84;5029106;28;20057;-62
2021/12/23 06:57:56;;;;;;;41.70;24.08;;;;;;;-2.37;95.52;100802.28;5029791;28;20581;-61
2021/12/23 07:00:26;;;;;;;46.00;25.10;;;;;;;-2.35;95.78;100792.81;5024187;28;20054;-62
2021/12/23 07:02:54;;;;;;;39.90;22.55;;;;;;;-2.36;94.60;100784.22;5029608;28;20116;-64
2021/12/23 07:05:22;;;;;;;45.28;23.90;;;;;;;-2.43;95.35;100779.97;5027332;28;20140;-62
2021/12/23 07:08:08;;;;;;;39.50;22.48;;;;;;;-2.40;95.34;100769.63;5026304;28;20053;-62
2021/12/23 07:10:35;;;;;;;42.83;23.70;;;;;;;-2.22;95.22;100755.81;5028083;28;20128;-61
2021/12/23 07:13:03;;;;;;;39.85;23.38;;;;;;;-2.18;94.94;100756.66;5029210;28;20096;-62
2021/12/23 07:15:32;;;;;;;44.63;23.70;;;;;;;-2.22;95.64;100748.06;5025660;28;20068;-61
2021/12/23 07:18:00;;;;;;;38.97;23.77;;;;;;;-2.23;94.85;100743.78;5030428;28;20547;-62
2021/12/23 07:20:28;;;;;;;44.22;23.35;;;;;;;-2.21;95.31;100742.03;5026441;28;20108;-59
2021/12/23 07:22:56;;;;;;;41.42;23.52;;;;;;;-2.21;95.11;100741.19;5029130;28;20340;-61
2021/12/23 07:25:23;;;;;;;40.63;22.90;;;;;;;-2.14;95.26;100751.47;5028698;28;20061;-62
2021/12/23 07:27:50;;;;;;;41.88;23.50;;;;;;;-2.15;95.08;100748.91;5027322;28;20536;-60
2021/12/23 07:30:18;;;;;;;44.83;22.92;;;;;;;-2.16;94.54;100739.44;5030319;28;20046;-60
2021/12/23 07:32:47;;;;;;;41.58;22.58;;;;;;;-2.21;93.91;100731.72;5072542;23;20572;-59
2021/12/23 07:35:15;;;;;;;37.80;22.55;;;;;;;-2.20;94.44;100730.88;5026686;28;20451;-60
2021/12/23 07:37:43;;;;;;;42.42;22.90;;;;;;;-2.15;94.95;100743.75;5028705;28;20049;-58
2021/12/23 07:40:16;;;;;;;40.05;22.15;;;;;;;-2.19;94.54;100736.91;5026722;28;20140;-57
2021/12/23 07:42:53;;;;;;;38.90;22.35;;;;;;;-2.16;94.48;100717.09;5029478;28;20095;-57
2021/12/23 07:45:23;;;;;;;40.40;20.40;;;;;;;-2.11;94.35;100732.56;5027180;28;20057;-57
2021/12/23 07:47:50;;;;;;;40.70;21.60;;;;;;;-2.12;93.96;100739.41;5022101;28;20049;-60
2021/12/23 07:50:17;;;;;;;41.08;23.58;;;;;;;-2.11;94.50;100730.84;5031864;28;20128;-59
2021/12/23 07:52:44;;;;;;;41.17;21.27;;;;;;;-2.06;93.96;100731.66;5032821;28;20577;-59
2021/12/23 07:55:12;;;;;;;40.50;21.73;;;;;;;-2.01;93.69;100730.78;5024984;28;20064;-61
2021/12/23 07:57:40;;;;;;;37.95;21.13;;;;;;;-2.02;93.58;100722.19;5022842;28;20064;-61
2021/12/23 08:00:08;;;;;;;36.13;21.45;;;;;;;-1.95;93.30;100729.00;5022516;28;20435;-60
2021/12/23 08:02:35;;;;;;;42.58;21.92;;;;;;;-1.96;93.16;100727.28;5026044;28;20049;-61
2021/12/23 08:05:02;;;;;;;46.30;23.08;;;;;;;-1.97;92.69;100723.00;5023562;28;20057;-61
2021/12/23 08:07:30;;;;;;;38.63;22.95;;;;;;;-1.94;92.70;100722.97;5031623;28;20045;-61
2021/12/23 08:09:57;;;;;;;37.50;21.35;;;;;;;-1.88;92.44;100716.94;5029483;28;20052;-60
2021/12/23 08:12:24;;;;;;;41.45;22.65;;;;;;;-1.75;91.90;100713.41;5028282;28;20126;-57
2021/12/23 08:14:51;;;;;;;38.97;22.00;;;;;;;-1.82;91.30;100698.81;5028319;28;20144;-58
2021/12/23 08:17:35;;;;;;;39.72;23.77;;;;;;;-1.83;91.52;100694.53;5032400;28;20049;-60
2021/12/23 08:20:06;;;;;;;37.10;22.23;;;;;;;-1.82;91.43;100685.91;5027249;28;20065;-58
2021/12/23 08:22:34;;;;;;;35.50;21.58;;;;;;;-1.68;91.16;100678.94;5027750;28;20053;-59
2021/12/23 08:25:02;;;;;;;37.00;20.88;;;;;;;-1.69;91.06;100681.53;5028529;28;20145;-60
2021/12/23 08:27:31;;;;;;;37.42;20.75;;;;;;;-1.76;91.49;100682.44;5032258;28;20140;-59
2021/12/23 08:29:58;;;;;;;36.55;21.50;;;;;;;-1.85;91.51;100676.47;5029401;28;20135;-59
2021/12/23 08:32:25;;;;;;;39.17;22.10;;;;;;;-1.73;91.28;100680.69;5032622;28;20071;-60
2021/12/23 08:34:52;;;;;;;35.60;20.30;;;;;;;-1.72;91.54;100666.06;5029797;28;20638;-60
2021/12/23 08:37:19;;;;;;;41.28;22.42;;;;;;;-1.63;91.13;100665.97;5031896;28;20045;-60
2021/12/23 08:39:48;;;;;;;39.50;21.48;;;;;;;-1.66;91.14;100651.41;5032197;28;20067;-61
2021/12/23 08:42:15;;;;;;;37.33;20.95;;;;;;;-1.66;91.34;100659.13;5030556;28;20045;-61
2021/12/23 08:44:42;;;;;;;33.83;21.23;;;;;;;-1.67;91.46;100654.81;5026737;28;20140;-57
2021/12/23 08:47:10;;;;;;;38.42;20.92;;;;;;;-1.59;91.31;100649.59;5032260;28;20049;-58
2021/12/23 08:49:37;;;;;;;35.20;20.95;;;;;;;-1.60;90.63;100642.72;5026722;28;20045;-58
2021/12/23 08:52:05;;;;;;;35.13;19.55;;;;;;;-1.59;90.04;100649.59;5034579;28;20049;-60
2021/12/23 08:54:32;;;;;;;36.72;20.27;;;;;;;-1.57;89.81;100650.47;5028509;28;20539;-60
2021/12/23 08:56:59;;;;;;;36.65;20.15;;;;;;;-1.61;89.97;100641.88;5031045;28;20140;-63
2021/12/23 08:59:26;;;;;;;38.72;21.50;;;;;;;-1.52;89.51;100622.88;5028275;28;20604;-60
2021/12/23 09:01:55;;;;;;;33.60;19.60;;;;;;;-1.52;89.38;100628.03;5030607;28;20140;-60
2021/12/23 09:04:22;;;;;;;36.92;20.70;;;;;;;-1.52;89.18;100616.84;5026083;28;20461;-61
2021/12/23 09:06:49;;;;;;;36.95;21.33;;;;;;;-1.45;89.39;100613.31;5031005;28;20544;-59
2021/12/23 09:09:17;;;;;;;35.53;20.45;;;;;;;-1.48;88.99;100606.47;5028228;28;20060;-60
2021/12/23 09:11:45;;;;;;;36.20;21.10;;;;;;;-1.54;89.41;100604.78;5030839;28;20053;-61
2021/12/23 09:14:13;;;;;;;37.20;21.15;;;;;;;-1.51;89.28;100593.59;5030460;28;20099;-60
2021/12/23 09:16:40;;;;;;;36.08;19.73;;;;;;;-1.39;88.77;100587.47;5032228;28;20046;-61
2021/12/23 09:19:09;;;;;;;37.03;20.77;;;;;;;-1.44;88.03;100587.50;5030638;28;20127;-60
2021/12/23 09:21:37;;;;;;;36.00;20.55;;;;;;;-1.41;88.79;100589.19;5027510;28;20639;-61
2021/12/23 09:24:04;;;;;;;34.08;19.75;;;;;;;-1.45;88.89;100578.03;5028549;28;20149;-58
2021/12/23 09:26:41;;;;;;;37.10;19.80;;;;;;;-1.44;89.03;100566.84;5030587;28;20060;-59
2021/12/23 09:29:14;;;;;;;33.95;19.98;;;;;;;-1.37;88.54;100558.16;5027541;28;20148;-60
2021/12/23 09:34:27;;;;;;;40.63;20.00;;;;;;;-1.22;88.44;100551.09;5030904;28;20053;-58
2021/12/23 09:36:54;;;;;;;36.42;20.05;;;;;;;-1.16;88.33;100546.72;5027567;28;20506;-57
2021/12/23 09:39:22;;;;;;;37.95;19.38;;;;;;;-1.07;87.79;100546.63;5027687;28;20140;-58
2021/12/23 09:41:49;;;;;;;33.10;18.90;;;;;;;-1.04;87.58;100544.00;5030094;28;20041;-60
2021/12/23 09:44:17;;;;;;;35.38;20.13;;;;;;;-0.93;87.11;100538.69;5028016;28;20064;-59
2021/12/23 09:46:44;;;;;;;33.10;19.88;;;;;;;-0.96;86.90;100530.97;5030069;28;20050;-59
2021/12/23 09:49:11;;;;;;;37.00;19.73;;;;;;;-0.91;86.23;100510.22;5023352;28;20053;-58
2021/12/23 09:51:39;;;;;;;34.10;19.90;;;;;;;-0.94;86.51;100497.38;5031853;28;20045;-58
2021/12/23 09:54:07;;;;;;;33.80;17.35;;;;;;;-0.90;86.21;100499.00;5026163;28;20173;-58
2021/12/23 09:56:35;;;;;;;33.65;18.90;;;;;;;-0.90;86.18;100512.81;5025536;28;20221;-58
2021/12/23 09:59:05;;;;;;;37.35;19.40;;;;;;;-0.85;85.18;100503.25;5026780;28;20136;-59
2021/12/23 10:01:34;;;;;;;35.13;19.23;;;;;;;-0.77;85.01;100495.38;5028800;28;20076;-58
2021/12/23 10:04:02;;;;;;;32.33;18.13;;;;;;;-0.80;85.35;100491.13;5027843;28;20195;-60
2021/12/23 10:06:30;;;;;;;33.65;19.23;;;;;;;-0.80;84.69;100493.72;5027414;28;20049;-60
2021/12/23 10:08:58;;;;;;;32.65;18.98;;;;;;;-0.67;84.96;100478.03;5028327;28;20053;-58
2021/12/23 10:11:52;;;;;;;34.25;18.67;;;;;;;-0.71;84.96;100474.63;5027215;28;20140;-60
2021/12/23 10:31:33;;;;;;;32.45;17.67;;;;;;;-0.41;83.21;100379.31;5031226;28;20063;-60
2021/12/23 10:37:17;;;;;;;30.85;18.73;;;;;;;-0.31;83.22;100376.56;5028221;28;20459;-58
2021/12/23 10:39:49;;;;;;;30.45;17.45;;;;;;;-0.26;82.71;100374.72;5021260;28;20401;-61
2021/12/23 10:42:19;;;;;;;36.10;17.88;;;;;;;-0.31;82.87;100358.44;5029361;28;20196;-61
2021/12/23 10:45:04;;;;;;;38.53;18.73;;;;;;;-0.38;83.93;100361.16;5028876;28;20049;-60
2021/12/23 10:47:42;;;;;;;30.13;17.13;;;;;;;-0.46;83.60;100332.84;5025078;28;20461;-57
2021/12/23 10:50:20;;;;;;;30.63;19.02;;;;;;;-0.39;84.08;100316.34;5027726;28;20053;-59
2021/12/23 10:52:49;;;;;;;33.28;18.23;;;;;;;-0.44;83.79;100318.16;5023695;28;20458;-58
2021/12/23 10:58:09;;;;;;;34.00;19.35;;;;;;;-0.36;84.33;100300.78;5025353;28;20057;-61
2021/12/23 11:00:41;;;;;;;27.95;16.48;;;;;;;-0.35;84.03;100299.03;5027806;28;20498;-61
2021/12/23 11:03:38;;;;;;;31.00;18.73;;;;;;;-0.30;83.63;100292.03;5025394;28;20045;-59
2021/12/23 11:06:28;;;;;;;32.17;17.17;;;;;;;-0.18;84.03;100286.63;5020581;28;20204;-60
2021/12/23 11:42:23;;;;;;;24.08;15.00;;;;;;;0.01;82.14;100263.81;5024508;28;20363;-60
2021/12/23 11:44:51;;;;;;;27.92;15.40;;;;;;;0.05;81.35;100286.16;5027794;28;20045;-60
2021/12/23 11:47:18;;;;;;;26.17;14.93;;;;;;;-0.02;81.69;100256.09;5028593;28;20057;-61
2021/12/23 11:49:47;;;;;;;27.40;15.18;;;;;;;0.14;80.93;100256.63;5023232;28;20545;-60
2021/12/23 11:52:15;;;;;;;29.88;15.35;;;;;;;0.20;80.49;100259.06;5028657;28;20119;-60
2021/12/23 11:54:45;;;;;;;27.42;15.25;;;;;;;0.34;80.06;100228.53;5026802;28;20079;-60
2021/12/23 11:57:32;;;;;;;28.65;15.38;;;;;;;0.41;79.19;100258.59;5026956;28;20100;-60
2021/12/23 12:00:31;;;;;;;23.45;14.95;;;;;;;0.68;79.51;100238.94;5024871;28;20064;-58
2021/12/23 12:03:05;;;;;;;26.50;15.18;;;;;;;0.97;77.15;100245.13;5024408;28;20053;-59
2021/12/23 12:05:33;;;;;;;28.38;15.02;;;;;;;1.31;76.44;100220.94;5021540;28;20128;-61
2021/12/23 12:08:11;;;;;;;24.15;14.88;;;;;;;1.70;74.67;100217.19;5027253;28;20461;-62
2021/12/23 12:10:41;;;;;;;25.92;14.20;;;;;;;2.22;72.58;100217.38;5026950;28;20144;-61
2021/12/23 12:13:10;;;;;;;24.73;14.77;;;;;;;2.63;71.43;100213.44;5029621;28;20493;-59
2021/12/23 12:15:39;;;;;;;27.40;13.98;;;;;;;2.85;70.24;100216.19;5018396;28;20526;-58
2021/12/23 12:18:13;;;;;;;23.05;13.80;;;;;;;2.40;70.25;100210.75;5026117;28;20062;-60
2021/12/23 12:23:29;;;;;;;30.52;14.50;;;;;;;1.49;72.92;100195.31;5027802;28;20564;-59